Terminal Aerodrome Forecast
Issued by NWS Greer, SC

Home | Current Version | Previous Version | Text Only | Print | Product List | Glossary On
Versions: 1 2 3 4 5 6 7 8 9 10 11 12 13 14 15 16 17 18 19 20 21 22 23 24 25
000
FTUS42 KGSP 182331
TAFCLT
TAF
KCLT 182331Z 1900/1924 34005KT P6SM SCT200
     FM190500 04003KT P6SM SCT200
     FM191400 06005KT P6SM BKN200
     FM191800 19004KT P6SM FEW080 BKN150=

USA.gov is the U.S. government's official web portal to all federal, state and local government web resources and services.